Time;durP1;ratioP1;P1;durP2;ratioP2;P2;SDS_P1;SDS_P2;PMS_P1;PMS_P2;Temp;Humidity;BMP_temperature;BMP_pressure;BME280_temperature;BME280_humidity;BME280_pressure;Samples;Min_cycle;Max_cycle;Signal;HPM_P1;HPM_P2
2023/01/06 00:01:24;;;;;;;0.60;0.50;;;;;;;;;;6216945;23;20726;-79
2023/01/06 00:03:52;;;;;;;0.60;0.60;;;;;;;;;;6190168;23;20777;-78
2023/01/06 00:06:21;;;;;;;0.60;0.60;;;;;;;;;;6190628;23;20714;-77
2023/01/06 00:08:49;;;;;;;0.60;0.60;;;;;;;;;;6190259;23;20555;-79
2023/01/06 00:11:21;;;;;;;0.60;0.53;;;;;;;;;;6215099;23;20415;-78
2023/01/06 00:13:48;;;;;;;0.60;0.60;;;;;;;;;;6214759;23;20744;-78
2023/01/06 00:16:17;;;;;;;0.60;0.60;;;;;;;;;;6216450;23;20389;-79
2023/01/06 00:18:44;;;;;;;0.60;0.50;;;;;;;;;;6215401;23;20414;-77
2023/01/06 00:21:12;;;;;;;0.60;0.60;;;;;;;;;;6215367;23;20438;-77
2023/01/06 00:23:39;;;;;;;0.60;0.60;;;;;;;;;;6215206;23;20416;-77
2023/01/06 00:26:08;;;;;;;0.60;0.60;;;;;;;;;;6189776;23;20459;-77
2023/01/06 00:28:36;;;;;;;0.60;0.60;;;;;;;;;;6214832;23;20739;-78
2023/01/06 00:31:06;;;;;;;0.70;0.70;;;;;;;;;;6190298;23;20404;-78
2023/01/06 00:33:34;;;;;;;0.60;0.60;;;;;;;;;;6190238;23;20447;-77
2023/01/06 00:36:01;;;;;;;0.70;0.70;;;;;;;;;;6189841;23;20397;-78
2023/01/06 00:38:28;;;;;;;1.73;1.33;;;;;;;;;;6214822;23;20408;-78
2023/01/06 00:40:55;;;;;;;0.80;0.80;;;;;;;;;;6190432;23;20948;-78
2023/01/06 00:43:23;;;;;;;0.70;0.70;;;;;;;;;;6213513;23;20417;-77
2023/01/06 00:45:50;;;;;;;0.60;0.60;;;;;;;;;;6190331;23;20869;-77
2023/01/06 00:48:17;;;;;;;0.60;0.60;;;;;;;;;;6214930;23;20441;-78
2023/01/06 00:50:44;;;;;;;0.60;0.60;;;;;;;;;;6214771;23;20461;-78
2023/01/06 00:53:12;;;;;;;0.60;0.50;;;;;;;;;;6215129;23;20436;-77
2023/01/06 00:55:41;;;;;;;0.60;0.60;;;;;;;;;;6190484;23;20426;-77
2023/01/06 00:58:08;;;;;;;0.60;0.60;;;;;;;;;;6189870;23;20455;-77
2023/01/06 01:00:39;;;;;;;0.60;0.60;;;;;;;;;;6215230;23;20419;-78
2023/01/06 01:03:05;;;;;;;0.60;0.60;;;;;;;;;;6189804;23;20424;-77
2023/01/06 01:05:32;;;;;;;0.60;0.60;;;;;;;;;;6214842;23;20382;-77
2023/01/06 01:08:00;;;;;;;0.60;0.60;;;;;;;;;;6214587;23;20887;-77
2023/01/06 01:10:27;;;;;;;0.80;0.73;;;;;;;;;;6189817;23;20716;-78
2023/01/06 01:12:54;;;;;;;0.70;0.60;;;;;;;;;;6189812;23;20413;-78
2023/01/06 01:15:23;;;;;;;0.60;0.60;;;;;;;;;;6188510;23;20418;-78
2023/01/06 01:17:51;;;;;;;0.60;0.60;;;;;;;;;;6214495;23;20783;-78
2023/01/06 01:20:18;;;;;;;0.70;0.70;;;;;;;;;;6214055;23;20444;-77
2023/01/06 01:22:46;;;;;;;0.60;0.50;;;;;;;;;;6190207;23;20408;-77
2023/01/06 01:25:14;;;;;;;1.27;0.87;;;;;;;;;;6214662;23;20389;-77
2023/01/06 01:27:43;;;;;;;0.60;0.50;;;;;;;;;;6189835;23;20471;-77
2023/01/06 01:30:11;;;;;;;0.60;0.60;;;;;;;;;;6189435;23;20406;-77
2023/01/06 01:32:38;;;;;;;1.10;1.10;;;;;;;;;;6214410;23;20526;-77
2023/01/06 01:35:09;;;;;;;0.60;0.60;;;;;;;;;;6215821;23;20728;-77
2023/01/06 01:37:38;;;;;;;0.60;0.60;;;;;;;;;;6214267;23;20422;-79
2023/01/06 01:40:05;;;;;;;0.60;0.60;;;;;;;;;;6214532;23;20436;-76
2023/01/06 01:42:32;;;;;;;0.60;0.60;;;;;;;;;;6215722;23;20392;-77
2023/01/06 01:45:01;;;;;;;0.60;0.60;;;;;;;;;;6213761;23;20414;-78
2023/01/06 01:47:31;;;;;;;0.60;0.60;;;;;;;;;;6239040;23;20440;-78
2023/01/06 01:50:00;;;;;;;0.60;0.60;;;;;;;;;;6189490;23;20429;-77
2023/01/06 01:52:29;;;;;;;0.60;0.60;;;;;;;;;;6215738;23;20464;-77
2023/01/06 01:54:57;;;;;;;0.60;0.60;;;;;;;;;;6214197;23;20415;-77
2023/01/06 01:57:25;;;;;;;0.60;0.50;;;;;;;;;;6189059;23;20406;-79
2023/01/06 01:59:53;;;;;;;0.70;0.70;;;;;;;;;;6214446;23;20441;-76
2023/01/06 02:02:42;;;;;;;0.60;0.50;;;;;;;;;;6213805;23;20503;-77
2023/01/06 02:05:12;;;;;;;0.60;0.60;;;;;;;;;;6189352;23;20401;-77
2023/01/06 02:07:40;;;;;;;0.60;0.60;;;;;;;;;;6214414;23;20464;-77
2023/01/06 02:10:10;;;;;;;0.60;0.60;;;;;;;;;;6188969;23;20873;-77
2023/01/06 02:12:37;;;;;;;0.60;0.60;;;;;;;;;;6238849;23;20807;-77
2023/01/06 02:15:13;;;;;;;0.60;0.60;;;;;;;;;;6213566;23;20381;-77
2023/01/06 02:17:47;;;;;;;0.70;0.70;;;;;;;;;;6212930;23;20757;-76
2023/01/06 02:20:35;;;;;;;0.60;0.60;;;;;;;;;;6213835;23;20441;-77
2023/01/06 02:23:14;;;;;;;0.60;0.60;;;;;;;;;;6213859;23;20527;-76
2023/01/06 02:26:01;;;;;;;0.60;0.60;;;;;;;;;;6213687;23;20423;-76
2023/01/06 02:28:43;;;;;;;0.60;0.60;;;;;;;;;;6214142;23;20435;-76
2023/01/06 02:31:19;;;;;;;0.60;0.60;;;;;;;;;;6188765;23;20415;-78
2023/01/06 02:33:53;;;;;;;0.70;0.70;;;;;;;;;;6213505;23;20412;-77
2023/01/06 02:36:46;;;;;;;0.60;0.60;;;;;;;;;;6215105;23;20880;-76
2023/01/06 02:39:20;;;;;;;0.63;0.63;;;;;;;;;;6189580;23;20499;-77
2023/01/06 02:42:01;;;;;;;0.60;0.60;;;;;;;;;;6190065;23;20746;-77
2023/01/06 02:44:42;;;;;;;0.60;0.60;;;;;;;;;;6189825;23;20471;-76
2023/01/06 02:47:16;;;;;;;0.70;0.63;;;;;;;;;;6188976;23;20955;-76
2023/01/06 02:49:55;;;;;;;0.70;0.70;;;;;;;;;;6191931;23;20409;-76
2023/01/06 02:52:30;;;;;;;0.60;0.60;;;;;;;;;;6213972;23;20470;-77
2023/01/06 02:55:12;;;;;;;0.60;0.60;;;;;;;;;;6191139;23;20420;-77
2023/01/06 02:57:50;;;;;;;0.70;0.70;;;;;;;;;;6213517;23;20412;-77
2023/01/06 03:00:26;;;;;;;0.60;0.60;;;;;;;;;;6189461;23;20441;-76
2023/01/06 03:02:59;;;;;;;0.60;0.60;;;;;;;;;;6213760;23;20445;-77
2023/01/06 03:05:32;;;;;;;0.70;0.70;;;;;;;;;;6213924;23;20397;-78
2023/01/06 03:08:06;;;;;;;0.67;0.63;;;;;;;;;;6189383;23;20441;-76
2023/01/06 03:10:41;;;;;;;0.60;0.60;;;;;;;;;;6213900;23;20443;-75
2023/01/06 03:13:13;;;;;;;0.60;0.60;;;;;;;;;;6212743;23;20449;-74
2023/01/06 03:15:41;;;;;;;0.60;0.60;;;;;;;;;;6213189;23;20467;-76
2023/01/06 03:18:14;;;;;;;0.60;0.60;;;;;;;;;;6214166;23;20430;-76
2023/01/06 03:20:43;;;;;;;0.60;0.60;;;;;;;;;;6191258;23;20944;-76
2023/01/06 03:23:13;;;;;;;0.60;0.60;;;;;;;;;;6215570;23;20911;-76
2023/01/06 03:25:44;;;;;;;0.80;0.80;;;;;;;;;;6216662;23;20756;-76
2023/01/06 03:28:18;;;;;;;0.70;0.70;;;;;;;;;;6214899;23;20448;-77
2023/01/06 03:30:52;;;;;;;0.60;0.60;;;;;;;;;;6189587;23;20419;-76
2023/01/06 03:33:25;;;;;;;0.60;0.60;;;;;;;;;;6215018;23;20759;-77
2023/01/06 03:36:07;;;;;;;0.60;0.60;;;;;;;;;;6217477;23;20416;-76
2023/01/06 03:38:44;;;;;;;0.60;0.60;;;;;;;;;;6215708;23;20503;-76
2023/01/06 03:41:20;;;;;;;0.70;0.70;;;;;;;;;;6215324;23;20924;-76
2023/01/06 03:44:01;;;;;;;0.70;0.70;;;;;;;;;;6216517;23;20420;-76
2023/01/06 03:46:37;;;;;;;0.70;0.70;;;;;;;;;;6191345;23;20416;-76
2023/01/06 03:49:17;;;;;;;0.70;0.70;;;;;;;;;;6190570;23;20432;-76
2023/01/06 03:51:56;;;;;;;0.80;0.80;;;;;;;;;;6191710;23;20957;-76
2023/01/06 03:54:34;;;;;;;0.70;0.70;;;;;;;;;;6215063;23;20829;-77
2023/01/06 03:57:09;;;;;;;0.60;0.60;;;;;;;;;;6191516;23;20440;-76
2023/01/06 03:59:44;;;;;;;0.60;0.60;;;;;;;;;;6191799;23;20511;-76
2023/01/06 04:02:18;;;;;;;0.70;0.70;;;;;;;;;;6190851;23;20434;-76
2023/01/06 04:05:05;;;;;;;0.60;0.60;;;;;;;;;;6190692;23;20412;-76
2023/01/06 04:07:43;;;;;;;0.60;0.60;;;;;;;;;;6217490;23;20499;-76
2023/01/06 04:10:22;;;;;;;0.60;0.60;;;;;;;;;;6190885;23;20437;-76
2023/01/06 04:12:56;;;;;;;0.60;0.60;;;;;;;;;;6214818;23;20507;-78
2023/01/06 04:15:29;;;;;;;0.67;0.67;;;;;;;;;;6214855;23;20783;-76
2023/01/06 04:18:25;;;;;;;0.60;0.60;;;;;;;;;;6217027;23;20969;-76
2023/01/06 04:20:53;;;;;;;0.60;0.60;;;;;;;;;;6190283;23;20440;-77
2023/01/06 04:23:31;;;;;;;0.80;0.80;;;;;;;;;;6214769;23;20790;-76
2023/01/06 04:26:03;;;;;;;0.70;0.70;;;;;;;;;;6214301;23;20419;-76
2023/01/06 04:28:36;;;;;;;0.70;0.70;;;;;;;;;;6214678;23;20428;-76
2023/01/06 04:31:04;;;;;;;0.70;0.70;;;;;;;;;;6215028;23;20923;-76
2023/01/06 04:33:33;;;;;;;0.83;0.83;;;;;;;;;;6214750;23;20742;-76
2023/01/06 04:36:05;;;;;;;0.70;0.70;;;;;;;;;;6214861;23;20422;-76
2023/01/06 04:38:33;;;;;;;0.70;0.70;;;;;;;;;;6214858;23;20459;-76
2023/01/06 04:41:00;;;;;;;0.70;0.70;;;;;;;;;;6215617;23;20742;-76
2023/01/06 04:43:28;;;;;;;0.60;0.60;;;;;;;;;;6214624;23;20374;-76
2023/01/06 04:45:56;;;;;;;0.60;0.60;;;;;;;;;;6214721;23;20417;-76
2023/01/06 04:48:24;;;;;;;0.70;0.70;;;;;;;;;;6214888;23;20441;-74
2023/01/06 04:50:58;;;;;;;0.63;0.60;;;;;;;;;;6215686;23;20377;-76
2023/01/06 04:53:26;;;;;;;0.70;0.70;;;;;;;;;;6214744;23;20846;-75
2023/01/06 04:56:00;;;;;;;0.60;0.60;;;;;;;;;;6216044;23;20409;-75
2023/01/06 04:58:27;;;;;;;0.67;0.67;;;;;;;;;;6215254;23;20399;-75
2023/01/06 05:00:57;;;;;;;1.23;1.13;;;;;;;;;;6214288;23;20738;-75
2023/01/06 05:03:25;;;;;;;0.70;0.70;;;;;;;;;;6189827;23;20480;-75
2023/01/06 05:05:52;;;;;;;0.63;0.60;;;;;;;;;;6216080;23;20389;-74
2023/01/06 05:08:20;;;;;;;0.70;0.70;;;;;;;;;;6189776;23;20413;-75
2023/01/06 05:10:48;;;;;;;0.70;0.70;;;;;;;;;;6214578;23;20375;-76
2023/01/06 05:13:15;;;;;;;0.70;0.70;;;;;;;;;;6216102;23;20382;-74
2023/01/06 05:15:42;;;;;;;0.80;0.80;;;;;;;;;;6213333;23;20499;-75
2023/01/06 05:18:09;;;;;;;0.80;0.80;;;;;;;;;;6215501;23;20407;-76
2023/01/06 05:20:37;;;;;;;0.70;0.60;;;;;;;;;;6215884;23;20420;-75
2023/01/06 05:23:04;;;;;;;0.60;0.60;;;;;;;;;;6214489;23;20790;-76
2023/01/06 05:25:31;;;;;;;0.60;0.60;;;;;;;;;;6189104;23;20399;-75
2023/01/06 05:28:00;;;;;;;0.60;0.60;;;;;;;;;;6216096;23;20708;-73
2023/01/06 05:30:26;;;;;;;0.60;0.60;;;;;;;;;;6213822;23;20814;-75
2023/01/06 05:32:54;;;;;;;0.60;0.60;;;;;;;;;;6214111;23;20476;-75
2023/01/06 05:35:21;;;;;;;0.70;0.60;;;;;;;;;;6215780;23;20380;-75
2023/01/06 05:37:48;;;;;;;0.60;0.60;;;;;;;;;;6214334;23;20433;-75
2023/01/06 05:40:15;;;;;;;0.70;0.70;;;;;;;;;;6214029;23;20423;-75
2023/01/06 05:42:43;;;;;;;0.60;0.57;;;;;;;;;;6215861;23;20411;-75
2023/01/06 05:45:12;;;;;;;0.70;0.70;;;;;;;;;;6213864;23;20383;-75
2023/01/06 05:47:39;;;;;;;0.70;0.60;;;;;;;;;;6213881;23;20422;-76
2023/01/06 05:50:06;;;;;;;0.60;0.60;;;;;;;;;;6214375;23;20405;-76
2023/01/06 05:52:32;;;;;;;0.70;0.70;;;;;;;;;;6215346;23;20935;-76
2023/01/06 05:54:59;;;;;;;0.73;0.73;;;;;;;;;;6215305;23;20783;-75
2023/01/06 05:57:27;;;;;;;0.70;0.70;;;;;;;;;;6215679;23;20884;-75
2023/01/06 05:59:54;;;;;;;0.70;0.70;;;;;;;;;;6214033;23;20505;-75
2023/01/06 06:02:22;;;;;;;0.70;0.60;;;;;;;;;;6213668;23;20857;-75
2023/01/06 06:04:50;;;;;;;0.70;0.70;;;;;;;;;;6189587;23;20474;-74
2023/01/06 06:07:17;;;;;;;0.60;0.60;;;;;;;;;;6213804;23;20782;-75
2023/01/06 06:09:44;;;;;;;0.70;0.70;;;;;;;;;;6188885;23;20409;-76
2023/01/06 06:12:13;;;;;;;0.70;0.70;;;;;;;;;;6188799;23;20414;-74
2023/01/06 06:14:41;;;;;;;0.67;0.67;;;;;;;;;;6213960;23;20410;-74
2023/01/06 06:17:07;;;;;;;0.60;0.60;;;;;;;;;;6214958;23;20446;-74
2023/01/06 06:19:36;;;;;;;0.70;0.70;;;;;;;;;;6214378;23;20414;-75
2023/01/06 06:22:03;;;;;;;0.70;0.70;;;;;;;;;;6214154;23;20420;-75
2023/01/06 06:24:30;;;;;;;0.70;0.70;;;;;;;;;;6215442;23;20472;-74
2023/01/06 06:26:58;;;;;;;0.60;0.60;;;;;;;;;;6215565;23;20447;-75
2023/01/06 06:29:25;;;;;;;0.67;0.60;;;;;;;;;;6214618;23;20712;-76
2023/01/06 06:31:52;;;;;;;0.70;0.60;;;;;;;;;;6214026;23;20403;-76
2023/01/06 06:34:20;;;;;;;0.70;0.70;;;;;;;;;;6214129;23;20437;-75
2023/01/06 06:36:49;;;;;;;0.70;0.67;;;;;;;;;;6213640;23;20382;-76
2023/01/06 06:39:18;;;;;;;0.70;0.70;;;;;;;;;;6189437;23;20442;-74
2023/01/06 06:41:48;;;;;;;0.70;0.70;;;;;;;;;;6213547;23;20426;-76
2023/01/06 06:44:14;;;;;;;0.70;0.70;;;;;;;;;;6213634;23;20896;-74
2023/01/06 06:46:42;;;;;;;0.70;0.70;;;;;;;;;;6214596;23;20395;-74
2023/01/06 06:49:09;;;;;;;0.60;0.60;;;;;;;;;;6213180;23;20469;-72
2023/01/06 06:51:36;;;;;;;0.67;0.60;;;;;;;;;;6214240;23;20400;-75
2023/01/06 06:54:04;;;;;;;0.80;0.80;;;;;;;;;;6241270;23;20474;-76
2023/01/06 06:56:31;;;;;;;0.67;0.60;;;;;;;;;;6215419;23;20410;-74
2023/01/06 06:58:58;;;;;;;0.80;0.80;;;;;;;;;;6215802;23;20396;-76
2023/01/06 07:01:30;;;;;;;0.70;0.70;;;;;;;;;;6217133;23;20414;-75
2023/01/06 07:03:58;;;;;;;0.70;0.70;;;;;;;;;;6217322;23;20490;-73
2023/01/06 07:06:26;;;;;;;0.70;0.70;;;;;;;;;;6216113;23;20396;-74
2023/01/06 07:08:54;;;;;;;0.70;0.70;;;;;;;;;;6216778;23;20421;-75
2023/01/06 07:11:22;;;;;;;0.60;0.60;;;;;;;;;;6217845;23;20383;-74
2023/01/06 07:13:49;;;;;;;0.60;0.60;;;;;;;;;;6216797;23;20413;-75
2023/01/06 07:16:16;;;;;;;0.70;0.70;;;;;;;;;;6217417;23;20380;-75
2023/01/06 07:18:43;;;;;;;0.70;0.70;;;;;;;;;;6215581;23;20417;-73
2023/01/06 07:21:10;;;;;;;0.70;0.60;;;;;;;;;;6215499;23;20439;-75
2023/01/06 07:23:37;;;;;;;0.70;0.70;;;;;;;;;;6218374;23;20415;-75
2023/01/06 07:26:03;;;;;;;0.70;0.70;;;;;;;;;;6216049;23;20421;-76
2023/01/06 07:28:32;;;;;;;0.80;0.80;;;;;;;;;;6216982;23;20410;-75
2023/01/06 07:30:59;;;;;;;0.70;0.70;;;;;;;;;;6242183;23;20417;-75
2023/01/06 07:33:28;;;;;;;0.70;0.70;;;;;;;;;;6217510;23;20444;-77
2023/01/06 07:36:01;;;;;;;0.70;0.60;;;;;;;;;;6216991;23;20377;-75
2023/01/06 07:38:29;;;;;;;0.70;0.60;;;;;;;;;;6214766;23;20381;-76
2023/01/06 07:40:59;;;;;;;0.70;0.70;;;;;;;;;;6214286;23;20894;-74
2023/01/06 07:43:26;;;;;;;0.70;0.60;;;;;;;;;;6216303;23;20401;-75
2023/01/06 07:45:55;;;;;;;0.70;0.70;;;;;;;;;;6188571;23;20459;-75
2023/01/06 07:48:25;;;;;;;0.70;0.70;;;;;;;;;;6216105;23;20922;-75
2023/01/06 07:50:52;;;;;;;0.70;0.60;;;;;;;;;;6214432;23;20420;-75
2023/01/06 07:53:19;;;;;;;0.70;0.70;;;;;;;;;;6215733;23;20388;-76
2023/01/06 07:55:50;;;;;;;0.70;0.60;;;;;;;;;;6214059;23;20388;-75
2023/01/06 07:58:20;;;;;;;0.70;0.70;;;;;;;;;;6214958;23;20840;-75
2023/01/06 08:00:47;;;;;;;0.70;0.70;;;;;;;;;;6189705;23;20415;-75
2023/01/06 08:03:16;;;;;;;0.80;0.80;;;;;;;;;;6214346;23;20905;-75
2023/01/06 08:05:43;;;;;;;0.70;0.70;;;;;;;;;;6213704;23;20413;-76
2023/01/06 08:08:10;;;;;;;0.70;0.70;;;;;;;;;;6216259;23;20685;-75
2023/01/06 08:10:38;;;;;;;0.73;0.73;;;;;;;;;;6211137;23;20487;-74
2023/01/06 08:13:25;;;;;;;0.73;0.73;;;;;;;;;;6218252;23;20413;-75
2023/01/06 08:15:52;;;;;;;0.70;0.60;;;;;;;;;;6188687;23;20518;-75
2023/01/06 08:18:20;;;;;;;0.80;0.80;;;;;;;;;;6214090;23;20427;-74
2023/01/06 08:20:48;;;;;;;0.70;0.67;;;;;;;;;;6213881;23;20836;-75
2023/01/06 08:23:15;;;;;;;0.70;0.70;;;;;;;;;;6215803;23;20416;-75
2023/01/06 08:25:42;;;;;;;0.70;0.70;;;;;;;;;;6215824;23;20951;-75
2023/01/06 08:28:09;;;;;;;0.70;0.60;;;;;;;;;;6214533;23;20417;-74
2023/01/06 08:30:38;;;;;;;0.70;0.63;;;;;;;;;;6215840;23;20882;-74
2023/01/06 08:33:06;;;;;;;0.70;0.70;;;;;;;;;;6215614;23;20409;-75
2023/01/06 08:35:34;;;;;;;0.70;0.70;;;;;;;;;;6215822;23;20402;-74
2023/01/06 08:38:01;;;;;;;0.73;0.73;;;;;;;;;;6213838;23;20420;-74
2023/01/06 08:40:29;;;;;;;0.70;0.60;;;;;;;;;;6213631;23;20381;-74
2023/01/06 08:42:55;;;;;;;0.63;0.60;;;;;;;;;;6213950;23;20502;-75
2023/01/06 08:45:24;;;;;;;0.70;0.60;;;;;;;;;;6214279;23;20438;-75
2023/01/06 08:47:51;;;;;;;0.70;0.70;;;;;;;;;;6213195;23;20534;-75
2023/01/06 08:50:18;;;;;;;0.80;0.80;;;;;;;;;;6213366;23;20419;-74
2023/01/06 08:52:48;;;;;;;0.80;0.80;;;;;;;;;;6188907;23;20547;-75
2023/01/06 08:55:14;;;;;;;1.33;1.23;;;;;;;;;;6213798;23;20477;-75
2023/01/06 08:57:41;;;;;;;0.70;0.70;;;;;;;;;;6213310;23;20504;-75
2023/01/06 09:00:09;;;;;;;0.80;0.80;;;;;;;;;;6213714;23;20405;-75
2023/01/06 09:02:37;;;;;;;0.77;0.77;;;;;;;;;;6214909;23;20433;-76
2023/01/06 09:05:04;;;;;;;0.70;0.70;;;;;;;;;;6215280;23;20509;-73
2023/01/06 09:07:31;;;;;;;0.70;0.60;;;;;;;;;;6213946;23;20408;-72
2023/01/06 09:10:00;;;;;;;0.80;0.80;;;;;;;;;;6212882;23;20470;-76
2023/01/06 09:12:28;;;;;;;0.70;0.60;;;;;;;;;;6214679;23;20385;-74
2023/01/06 09:14:55;;;;;;;0.70;0.60;;;;;;;;;;6214209;23;20476;-73
2023/01/06 09:17:22;;;;;;;0.70;0.70;;;;;;;;;;6214330;23;20410;-75
2023/01/06 09:19:49;;;;;;;0.70;0.70;;;;;;;;;;6212426;23;20454;-75
2023/01/06 09:22:16;;;;;;;0.80;0.80;;;;;;;;;;6212506;23;20448;-75
2023/01/06 09:24:43;;;;;;;0.70;0.70;;;;;;;;;;6214499;23;20483;-75
2023/01/06 09:27:11;;;;;;;0.70;0.70;;;;;;;;;;6188254;23;20405;-74
2023/01/06 09:29:39;;;;;;;0.70;0.70;;;;;;;;;;6214415;23;20388;-76
2023/01/06 09:32:06;;;;;;;0.70;0.70;;;;;;;;;;6213540;23;20405;-75
2023/01/06 09:34:33;;;;;;;0.70;0.70;;;;;;;;;;6213698;23;20480;-74
2023/01/06 09:37:02;;;;;;;0.70;0.70;;;;;;;;;;6213403;23;20434;-74
2023/01/06 09:39:29;;;;;;;0.70;0.70;;;;;;;;;;6215600;23;20387;-77
2023/01/06 09:42:01;;;;;;;0.70;0.60;;;;;;;;;;6213345;23;20434;-77
2023/01/06 09:44:32;;;;;;;0.80;0.80;;;;;;;;;;6214931;23;20842;-76
2023/01/06 09:47:00;;;;;;;0.70;0.70;;;;;;;;;;6214706;23;20734;-77
2023/01/06 09:49:28;;;;;;;0.70;0.70;;;;;;;;;;6238264;23;20412;-77
2023/01/06 09:51:56;;;;;;;0.80;0.80;;;;;;;;;;6213554;23;20379;-76
2023/01/06 09:54:25;;;;;;;0.70;0.60;;;;;;;;;;6213438;23;20886;-77
2023/01/06 09:56:55;;;;;;;0.70;0.60;;;;;;;;;;6213312;23;20494;-76
2023/01/06 09:59:26;;;;;;;0.70;0.70;;;;;;;;;;6212662;23;20448;-77
2023/01/06 10:01:58;;;;;;;0.80;0.80;;;;;;;;;;6214655;23;20514;-74
2023/01/06 10:04:27;;;;;;;0.70;0.60;;;;;;;;;;6214347;23;20722;-76
2023/01/06 10:07:02;;;;;;;0.80;0.80;;;;;;;;;;6213430;23;20425;-76
2023/01/06 10:09:35;;;;;;;0.70;0.70;;;;;;;;;;6214439;23;20411;-76
2023/01/06 10:12:07;;;;;;;0.70;0.70;;;;;;;;;;6215321;23;20374;-73
2023/01/06 10:14:40;;;;;;;0.70;0.70;;;;;;;;;;6213793;23;20389;-77
2023/01/06 10:17:24;;;;;;;0.70;0.63;;;;;;;;;;6212741;23;20401;-76
2023/01/06 10:19:58;;;;;;;0.80;0.80;;;;;;;;;;6188303;23;20413;-76
2023/01/06 10:22:30;;;;;;;0.70;0.70;;;;;;;;;;6214288;23;20422;-76
2023/01/06 10:25:00;;;;;;;0.70;0.70;;;;;;;;;;6211998;23;20412;-76
2023/01/06 10:27:31;;;;;;;0.70;0.70;;;;;;;;;;6214158;23;20394;-76
2023/01/06 10:30:01;;;;;;;0.80;0.80;;;;;;;;;;6213498;23;20432;-76
2023/01/06 10:32:31;;;;;;;0.70;0.67;;;;;;;;;;6213968;23;20417;-75
2023/01/06 10:35:00;;;;;;;0.70;0.67;;;;;;;;;;6212698;23;20414;-77
2023/01/06 10:37:32;;;;;;;0.70;0.70;;;;;;;;;;6212869;23;20378;-76
2023/01/06 10:40:02;;;;;;;0.70;0.60;;;;;;;;;;6187866;23;20461;-77
2023/01/06 10:45:18;;;;;;;0.70;0.70;;;;;;;;;;6214014;23;20433;-77
2023/01/06 10:47:46;;;;;;;0.70;0.70;;;;;;;;;;6237514;23;20489;-78
2023/01/06 10:50:17;;;;;;;0.80;0.80;;;;;;;;;;6214181;23;20406;-76
2023/01/06 10:52:45;;;;;;;0.70;0.70;;;;;;;;;;6188239;23;20742;-76
2023/01/06 10:55:16;;;;;;;0.80;0.80;;;;;;;;;;6209942;23;20408;-76
2023/01/06 10:57:43;;;;;;;0.70;0.70;;;;;;;;;;6210912;23;20415;-76
2023/01/06 11:00:12;;;;;;;0.80;0.80;;;;;;;;;;6214192;23;20468;-77
2023/01/06 11:02:44;;;;;;;0.70;0.70;;;;;;;;;;6212621;23;20447;-75
2023/01/06 11:05:12;;;;;;;0.70;0.60;;;;;;;;;;6212266;23;20508;-76
2023/01/06 11:07:45;;;;;;;0.80;0.80;;;;;;;;;;6212545;23;20388;-76
2023/01/06 11:10:21;;;;;;;0.70;0.70;;;;;;;;;;6212234;23;20442;-75
2023/01/06 11:12:47;;;;;;;0.70;0.70;;;;;;;;;;6213841;23;20369;-75
2023/01/06 11:15:19;;;;;;;0.70;0.60;;;;;;;;;;6213332;23;20388;-75
2023/01/06 11:17:47;;;;;;;0.80;0.80;;;;;;;;;;6212617;23;20879;-75
2023/01/06 11:20:27;;;;;;;0.70;0.60;;;;;;;;;;6187150;23;20907;-75
2023/01/06 11:23:10;;;;;;;0.77;0.77;;;;;;;;;;6211286;23;20490;-75
2023/01/06 11:25:38;;;;;;;0.70;0.70;;;;;;;;;;6237235;23;20388;-75
2023/01/06 11:28:15;;;;;;;0.70;0.70;;;;;;;;;;6212055;23;20424;-76
2023/01/06 11:30:45;;;;;;;0.70;0.70;;;;;;;;;;6213674;23;20476;-75
2023/01/06 11:33:14;;;;;;;0.70;0.70;;;;;;;;;;6213334;23;20444;-75
2023/01/06 11:35:42;;;;;;;0.70;0.70;;;;;;;;;;6212688;23;20420;-76
2023/01/06 11:38:12;;;;;;;0.80;0.80;;;;;;;;;;6213598;23;20395;-75
2023/01/06 11:40:40;;;;;;;0.73;0.73;;;;;;;;;;6213717;23;20445;-75
2023/01/06 11:43:11;;;;;;;0.70;0.70;;;;;;;;;;6213451;23;20455;-75
2023/01/06 11:45:41;;;;;;;0.70;0.67;;;;;;;;;;6215603;23;20380;-76
2023/01/06 11:48:12;;;;;;;0.70;0.60;;;;;;;;;;6213685;23;20894;-75
2023/01/06 11:50:40;;;;;;;0.70;0.70;;;;;;;;;;6214558;23;20415;-75
2023/01/06 11:53:16;;;;;;;0.70;0.70;;;;;;;;;;6214662;23;20384;-75
2023/01/06 11:55:54;;;;;;;0.70;0.70;;;;;;;;;;6214218;23;20383;-75
2023/01/06 11:58:26;;;;;;;0.80;0.80;;;;;;;;;;6213687;23;20383;-76
2023/01/06 12:00:55;;;;;;;1.33;1.23;;;;;;;;;;6188896;23;20476;-76
2023/01/06 12:03:30;;;;;;;0.70;0.70;;;;;;;;;;6214908;23;20522;-75
2023/01/06 12:06:04;;;;;;;0.70;0.70;;;;;;;;;;6213924;23;20743;-77
2023/01/06 12:08:35;;;;;;;0.70;0.70;;;;;;;;;;6215490;23;20384;-75
2023/01/06 12:11:04;;;;;;;0.70;0.70;;;;;;;;;;6215018;23;20386;-77
2023/01/06 12:13:32;;;;;;;0.70;0.70;;;;;;;;;;6212716;23;20403;-76
2023/01/06 12:16:22;;;;;;;0.70;0.70;;;;;;;;;;6215133;23;20386;-76
2023/01/06 12:18:50;;;;;;;0.70;0.60;;;;;;;;;;6214723;23;20416;-76
2023/01/06 12:21:21;;;;;;;0.70;0.70;;;;;;;;;;6188629;23;20405;-76
2023/01/06 12:23:51;;;;;;;0.70;0.63;;;;;;;;;;6213234;23;20438;-77
2023/01/06 12:26:20;;;;;;;0.70;0.70;;;;;;;;;;6212906;23;20517;-76
2023/01/06 12:28:49;;;;;;;0.70;0.60;;;;;;;;;;6213951;23;20442;-76
2023/01/06 12:31:19;;;;;;;0.70;0.70;;;;;;;;;;6212648;23;20421;-77
2023/01/06 12:33:48;;;;;;;0.70;0.60;;;;;;;;;;6212976;23;20493;-77
2023/01/06 12:36:18;;;;;;;0.80;0.80;;;;;;;;;;6214561;23;20412;-76
2023/01/06 12:38:51;;;;;;;0.60;0.60;;;;;;;;;;6213382;23;20397;-77
2023/01/06 12:41:23;;;;;;;0.70;0.70;;;;;;;;;;6212659;23;20741;-77
2023/01/06 12:43:53;;;;;;;0.70;0.70;;;;;;;;;;6212945;23;20442;-76
2023/01/06 12:46:25;;;;;;;0.70;0.70;;;;;;;;;;6213547;23;20499;-77
2023/01/06 12:48:55;;;;;;;0.70;0.70;;;;;;;;;;6215169;23;20550;-75
2023/01/06 12:51:24;;;;;;;0.70;0.70;;;;;;;;;;6212136;23;20388;-77
2023/01/06 12:53:53;;;;;;;0.70;0.70;;;;;;;;;;6189059;23;20753;-75
2023/01/06 12:56:41;;;;;;;0.60;0.60;;;;;;;;;;6213109;23;20413;-77
2023/01/06 12:59:13;;;;;;;0.70;0.70;;;;;;;;;;6212935;23;20870;-76
2023/01/06 13:01:44;;;;;;;0.70;0.70;;;;;;;;;;6213824;23;20438;-83
2023/01/06 13:04:25;;;;;;;0.70;0.70;;;;;;;;;;6213808;23;20765;-83
2023/01/06 13:07:01;;;;;;;0.70;0.70;;;;;;;;;;6214097;23;20471;-84
2023/01/06 13:09:33;;;;;;;0.70;0.70;;;;;;;;;;6213225;23;20403;-83
2023/01/06 13:12:10;;;;;;;0.70;0.70;;;;;;;;;;6214542;23;20460;-84
2023/01/06 13:14:40;;;;;;;0.63;0.63;;;;;;;;;;6215894;23;20458;-82
2023/01/06 13:17:14;;;;;;;0.70;0.70;;;;;;;;;;6215762;23;22681;-81
2023/01/06 13:19:45;;;;;;;0.80;0.80;;;;;;;;;;6216654;23;20840;-83
2023/01/06 13:22:16;;;;;;;0.70;0.70;;;;;;;;;;6216794;23;20704;-84
2023/01/06 13:24:50;;;;;;;0.73;0.73;;;;;;;;;;6217228;23;20564;-84
2023/01/06 13:27:26;;;;;;;0.70;0.60;;;;;;;;;;6215287;23;20403;-80
2023/01/06 13:30:11;;;;;;;0.70;0.70;;;;;;;;;;6221317;23;20884;-85
2023/01/06 13:32:46;;;;;;;0.60;0.60;;;;;;;;;;6219614;23;20800;-75
2023/01/06 13:35:22;;;;;;;0.60;0.60;;;;;;;;;;6215705;23;20386;-76
2023/01/06 13:37:54;;;;;;;0.60;0.60;;;;;;;;;;6216751;23;20377;-75
2023/01/06 13:40:26;;;;;;;0.70;0.70;;;;;;;;;;6215714;23;20380;-75
2023/01/06 13:42:57;;;;;;;0.70;0.70;;;;;;;;;;6213925;23;20817;-78
2023/01/06 13:45:29;;;;;;;0.70;0.70;;;;;;;;;;6214631;23;20393;-81
2023/01/06 13:47:56;;;;;;;0.70;0.60;;;;;;;;;;6214306;23;20429;-77
2023/01/06 13:50:25;;;;;;;0.70;0.70;;;;;;;;;;6212356;23;20456;-77
2023/01/06 13:52:55;;;;;;;0.70;0.70;;;;;;;;;;6216209;23;20417;-82
2023/01/06 13:55:24;;;;;;;0.60;0.60;;;;;;;;;;6218092;23;20715;-85
2023/01/06 13:57:51;;;;;;;0.70;0.70;;;;;;;;;;6221963;23;20438;-89
2023/01/06 14:00:23;;;;;;;0.70;0.70;;;;;;;;;;6188323;23;20474;-86
2023/01/06 14:03:11;;;;;;;0.70;0.60;;;;;;;;;;6212657;23;20496;-85
2023/01/06 14:05:49;;;;;;;0.60;0.60;;;;;;;;;;6200934;23;20416;-84
2023/01/06 14:08:18;;;;;;;0.60;0.60;;;;;;;;;;6212868;23;20902;-86
2023/01/06 14:10:45;;;;;;;0.70;0.70;;;;;;;;;;6212180;23;20384;-85
2023/01/06 14:13:18;;;;;;;0.70;0.70;;;;;;;;;;6212142;23;20378;-86
2023/01/06 14:15:56;;;;;;;0.70;0.60;;;;;;;;;;6215119;23;20385;-84
2023/01/06 14:18:34;;;;;;;0.60;0.60;;;;;;;;;;6212275;23;20761;-84
2023/01/06 14:21:03;;;;;;;0.67;0.67;;;;;;;;;;6214383;23;20377;-85
2023/01/06 14:23:30;;;;;;;0.60;0.60;;;;;;;;;;6213487;23;20415;-86
2023/01/06 14:25:58;;;;;;;0.80;0.80;;;;;;;;;;6212824;23;20400;-85
2023/01/06 14:28:27;;;;;;;0.70;0.70;;;;;;;;;;6213071;23;20393;-84
2023/01/06 14:31:12;;;;;;;0.60;0.60;;;;;;;;;;6211185;23;20509;-87
2023/01/06 14:33:41;;;;;;;0.70;0.60;;;;;;;;;;6213807;23;20449;-86
2023/01/06 14:36:11;;;;;;;0.70;0.70;;;;;;;;;;6213071;23;20415;-89
2023/01/06 14:38:41;;;;;;;0.60;0.60;;;;;;;;;;6188194;23;20415;-87
2023/01/06 14:41:14;;;;;;;0.67;0.67;;;;;;;;;;6214239;23;20387;-88
2023/01/06 14:43:45;;;;;;;0.60;0.60;;;;;;;;;;6213245;23;20432;-87
2023/01/06 14:46:18;;;;;;;0.70;0.70;;;;;;;;;;6213601;23;20423;-85
2023/01/06 14:48:49;;;;;;;0.60;0.60;;;;;;;;;;6212467;23;20519;-86
2023/01/06 14:51:40;;;;;;;0.70;0.70;;;;;;;;;;6219397;23;20399;-83
2023/01/06 14:54:12;;;;;;;0.70;0.67;;;;;;;;;;6213562;23;20718;-85
2023/01/06 14:56:40;;;;;;;0.60;0.60;;;;;;;;;;6215139;23;20706;-87
2023/01/06 14:59:11;;;;;;;0.60;0.60;;;;;;;;;;6211032;23;20448;-89
2023/01/06 15:01:41;;;;;;;0.60;0.60;;;;;;;;;;6238788;23;20503;-88
2023/01/06 15:04:20;;;;;;;0.60;0.60;;;;;;;;;;6213052;23;20446;-87
2023/01/06 15:06:54;;;;;;;0.70;0.70;;;;;;;;;;6212641;23;20400;-87